Time;durP1;ratioP1;P1;durP2;ratioP2;P2;SDS_P1;SDS_P2;PMS_P1;PMS_P2;Temp;Humidity;BMP_temperature;BMP_pressure;BME280_temperature;BME280_humidity;BME280_pressure;Samples;Min_cycle;Max_cycle;Signal;HPM_P1;HPM_P2
2023/10/11 00:03:17;;;;;;;25.35;9.52;;;10.10;99.90;;;;;;5059686;28;20439;-64
2023/10/11 00:05:45;;;;;;;31.35;10.43;;;10.00;99.90;;;;;;5068572;28;20493;-64
2023/10/11 00:08:13;;;;;;;27.85;9.80;;;9.90;99.90;;;;;;5069515;28;20077;-64
2023/10/11 00:10:50;;;;;;;34.85;10.13;;;9.90;99.90;;;;;;5066023;28;20120;-64
2023/10/11 00:13:16;;;;;;;25.80;9.30;;;9.90;99.90;;;;;;5066703;28;20041;-64
2023/10/11 00:15:48;;;;;;;27.77;9.88;;;9.80;99.90;;;;;;5057552;28;20115;-64
2023/10/11 00:18:16;;;;;;;26.08;9.43;;;9.70;99.90;;;;;;5049309;28;20033;-64
2023/10/11 00:23:08;;;;;;;33.15;10.82;;;9.70;99.90;;;;;;5036061;28;20060;-64
2023/10/11 00:25:34;;;;;;;29.77;9.93;;;9.60;99.90;;;;;;5068665;28;20110;-64
2023/10/11 00:28:00;;;;;;;26.58;9.13;;;9.60;99.90;;;;;;5068637;28;20090;-64
2023/10/11 00:30:29;;;;;;;29.40;9.45;;;9.60;99.90;;;;;;5069209;28;20028;-64
2023/10/11 00:32:55;;;;;;;27.90;9.40;;;9.60;99.90;;;;;;5068348;28;20024;-64
2023/10/11 00:35:24;;;;;;;25.10;8.90;;;9.60;99.90;;;;;;5066362;28;20057;-64
2023/10/11 00:37:54;;;;;;;28.08;9.57;;;9.60;99.90;;;;;;5045207;28;20132;-64
2023/10/11 00:40:28;;;;;;;24.30;8.57;;;9.60;99.90;;;;;;5048821;28;20429;-64
2023/10/11 00:42:56;;;;;;;23.70;8.95;;;9.60;99.90;;;;;;5048196;28;20267;-64
2023/10/11 00:45:23;;;;;;;26.92;10.15;;;9.50;99.90;;;;;;5048986;28;20029;-64
2023/10/11 00:47:51;;;;;;;27.65;10.68;;;9.50;99.90;;;;;;5053469;28;20496;-64
2023/10/11 00:50:18;;;;;;;31.52;10.27;;;9.60;99.90;;;;;;5068854;28;20111;-64
2023/10/11 00:52:45;;;;;;;28.63;10.15;;;9.60;99.90;;;;;;5068084;28;20350;-64
2023/10/11 00:55:23;;;;;;;23.23;8.93;;;9.70;99.90;;;;;;5068909;28;20024;-64
2023/10/11 00:57:50;;;;;;;26.38;8.23;;;9.80;99.90;;;;;;5068047;28;20033;-64
2023/10/11 01:00:20;;;;;;;25.17;8.52;;;9.80;99.90;;;;;;5056753;28;20025;-64
2023/10/11 01:02:46;;;;;;;43.38;11.30;;;9.80;99.90;;;;;;5047940;28;20487;-64
2023/10/11 01:05:13;;;;;;;24.00;8.65;;;9.80;99.90;;;;;;5048769;28;20083;-64
2023/10/11 01:07:39;;;;;;;26.80;8.77;;;9.80;99.90;;;;;;5048042;28;20539;-64
2023/10/11 01:10:06;;;;;;;26.83;9.55;;;9.70;99.90;;;;;;5048663;28;20065;-64
2023/10/11 01:12:32;;;;;;;24.67;8.77;;;9.60;99.90;;;;;;5062314;28;20040;-64
2023/10/11 01:14:58;;;;;;;26.20;8.55;;;9.60;99.90;;;;;;5060999;28;20023;-64
2023/10/11 01:17:31;;;;;;;31.25;9.40;;;9.60;99.90;;;;;;5047375;28;20086;-64
2023/10/11 01:20:01;;;;;;;33.10;8.32;;;9.60;99.90;;;;;;5047676;28;20071;-64
2023/10/11 01:22:27;;;;;;;24.05;7.90;;;9.60;99.90;;;;;;5048306;28;20040;-63
2023/10/11 01:24:55;;;;;;;24.75;8.45;;;9.60;99.90;;;;;;5067907;28;20036;-64
2023/10/11 01:27:25;;;;;;;25.55;8.77;;;9.70;99.90;;;;;;5068323;28;20050;-64
2023/10/11 01:29:51;;;;;;;22.33;8.65;;;9.70;99.90;;;;;;5065862;28;20095;-64
2023/10/11 01:32:17;;;;;;;28.38;9.95;;;9.80;99.90;;;;;;5068251;28;20564;-64
2023/10/11 01:34:44;;;;;;;23.27;9.13;;;9.80;99.90;;;;;;5064923;28;20028;-64
2023/10/11 01:37:10;;;;;;;28.13;8.77;;;9.70;99.90;;;;;;5047875;28;20060;-64
2023/10/11 01:39:35;;;;;;;24.80;9.52;;;9.80;99.90;;;;;;5048274;28;20533;-64
2023/10/11 01:42:01;;;;;;;28.17;9.38;;;9.70;99.90;;;;;;5047335;28;20021;-64
2023/10/11 01:44:27;;;;;;;29.05;9.60;;;9.80;99.90;;;;;;5048125;28;20509;-64
2023/10/11 01:46:53;;;;;;;32.88;9.88;;;9.80;99.90;;;;;;5066162;28;20135;-64
2023/10/11 01:49:19;;;;;;;26.65;9.90;;;9.90;99.90;;;;;;5068708;28;20035;-64
2023/10/11 01:51:47;;;;;;;28.23;9.98;;;10.00;99.90;;;;;;5071208;28;20438;-64
2023/10/11 01:54:15;;;;;;;24.10;9.10;;;10.00;99.90;;;;;;5072226;28;20043;-64
2023/10/11 01:56:41;;;;;;;25.10;9.52;;;10.10;99.90;;;;;;5071419;28;20038;-65
2023/10/11 01:59:11;;;;;;;30.42;10.60;;;10.20;99.90;;;;;;5051768;28;20033;-64
2023/10/11 02:01:40;;;;;;;25.70;9.30;;;10.20;99.90;;;;;;5052133;28;20061;-64
2023/10/11 02:04:11;;;;;;;25.30;9.60;;;10.20;99.90;;;;;;5051634;28;20037;-64
2023/10/11 02:06:39;;;;;;;33.00;9.95;;;10.20;99.90;;;;;;5052056;28;20111;-64
2023/10/11 02:09:04;;;;;;;22.83;9.38;;;10.20;99.90;;;;;;5056401;28;20028;-64
2023/10/11 02:11:30;;;;;;;28.60;10.82;;;10.20;99.90;;;;;;5071987;28;20032;-64
2023/10/11 02:13:59;;;;;;;20.67;8.35;;;10.10;99.90;;;;;;5071081;28;20024;-64
2023/10/11 02:16:25;;;;;;;29.38;9.27;;;10.10;99.90;;;;;;5055029;28;20032;-64
2023/10/11 02:18:58;;;;;;;24.15;9.27;;;10.00;99.90;;;;;;5051104;28;20091;-64
2023/10/11 02:21:25;;;;;;;30.15;9.38;;;10.00;99.90;;;;;;5059025;28;20052;-64
2023/10/11 02:23:50;;;;;;;29.23;9.90;;;10.00;99.90;;;;;;5070771;28;20028;-64
2023/10/11 02:26:16;;;;;;;27.92;9.82;;;10.00;99.90;;;;;;5071520;28;20504;-64
2023/10/11 02:28:46;;;;;;;27.75;9.48;;;10.00;99.90;;;;;;5056887;28;20040;-65
2023/10/11 02:31:19;;;;;;;24.23;9.55;;;10.00;99.90;;;;;;5057508;28;20025;-64
2023/10/11 02:33:45;;;;;;;27.30;10.73;;;10.00;99.90;;;;;;5070620;28;20032;-64
2023/10/11 02:36:18;;;;;;;32.95;11.82;;;10.00;99.90;;;;;;5071464;28;20075;-64
2023/10/11 02:38:49;;;;;;;27.20;10.80;;;10.10;99.90;;;;;;5058918;28;20072;-64
2023/10/11 02:41:20;;;;;;;22.13;10.18;;;10.00;99.90;;;;;;5051311;28;20076;-64
2023/10/11 02:43:49;;;;;;;;;;;9.90;99.90;;;;;;5062014;28;20050;-64
2023/10/11 02:46:23;;;;;;;24.48;9.27;;;9.90;99.90;;;;;;5055719;28;19916;-64
2023/10/11 02:48:52;;;;;;;25.98;9.48;;;9.90;99.90;;;;;;5050499;28;20028;-65
2023/10/11 02:51:24;;;;;;;28.07;10.53;;;9.90;99.90;;;;;;5051323;28;20376;-64
2023/10/11 02:53:53;;;;;;;30.30;9.68;;;10.00;99.90;;;;;;5050345;28;20111;-64
2023/10/11 02:56:19;;;;;;;24.02;9.30;;;9.90;99.90;;;;;;5065417;28;20036;-64
2023/10/11 02:58:46;;;;;;;23.63;9.25;;;10.00;99.90;;;;;;5069946;28;20032;-64
2023/10/11 03:01:20;;;;;;;24.13;9.05;;;10.00;99.90;;;;;;5049172;28;20083;-64
2023/10/11 03:03:47;;;;;;;26.15;9.15;;;10.00;99.90;;;;;;5050533;28;20075;-64
2023/10/11 03:06:13;;;;;;;24.25;8.05;;;9.90;99.90;;;;;;5050792;28;20040;-63
2023/10/11 03:08:44;;;;;;;30.58;9.65;;;9.90;99.90;;;;;;5050534;28;20041;-63
2023/10/11 03:11:15;;;;;;;28.75;9.55;;;9.90;99.90;;;;;;5069305;28;20024;-64
2023/10/11 03:13:43;;;;;;;31.48;9.63;;;9.90;99.90;;;;;;5070724;28;20037;-63
2023/10/11 03:16:13;;;;;;;23.45;8.27;;;9.90;99.90;;;;;;5055382;28;20091;-63
2023/10/11 03:18:40;;;;;;;25.83;10.48;;;10.00;99.90;;;;;;5047929;28;20032;-63
2023/10/11 03:21:32;;;;;;;23.67;9.93;;;10.00;99.90;;;;;;5050317;28;20635;-63
2023/10/11 03:24:04;;;;;;;25.30;9.35;;;9.90;99.90;;;;;;5069804;28;20052;-63
2023/10/11 03:28:59;;;;;;;23.90;9.20;;;9.70;99.90;;;;;;5069753;28;20036;-64
2023/10/11 03:31:29;;;;;;;26.27;9.63;;;9.70;99.90;;;;;;5065888;28;20460;-64
2023/10/11 03:34:11;;;;;;;24.45;9.48;;;9.80;99.90;;;;;;5049602;28;20083;-64
2023/10/11 03:36:49;;;;;;;21.85;9.02;;;9.80;99.90;;;;;;5050214;28;20074;-64
2023/10/11 03:39:26;;;;;;;26.08;9.60;;;9.80;99.90;;;;;;5050281;28;20036;-63
2023/10/11 03:41:59;;;;;;;24.85;8.45;;;9.80;99.90;;;;;;5050465;28;20028;-63
2023/10/11 03:44:28;;;;;;;25.75;10.35;;;9.70;99.90;;;;;;5050194;28;20040;-63
2023/10/11 03:46:54;;;;;;;29.65;9.48;;;9.80;99.90;;;;;;5049397;28;20063;-63
2023/10/11 03:51:49;;;;;;;27.25;8.90;;;9.80;99.90;;;;;;5049629;28;20470;-63
2023/10/11 03:54:24;;;;;;;25.65;9.70;;;9.70;99.90;;;;;;5061006;28;20043;-63
2023/10/11 03:56:53;;;;;;;29.00;9.48;;;9.60;99.90;;;;;;5069172;28;20032;-63
2023/10/11 03:59:26;;;;;;;23.92;9.05;;;9.60;99.90;;;;;;5069985;28;20111;-63
2023/10/11 04:02:01;;;;;;;24.58;9.80;;;9.70;99.90;;;;;;5067717;28;20528;-63
2023/10/11 04:04:27;;;;;;;27.08;9.27;;;9.70;99.90;;;;;;5069687;28;20039;-64
2023/10/11 04:06:57;;;;;;;20.77;8.65;;;9.80;99.90;;;;;;5063031;28;20045;-63
2023/10/11 04:09:37;;;;;;;23.45;8.63;;;9.80;99.90;;;;;;5069816;28;20036;-64
2023/10/11 04:12:04;;;;;;;26.15;9.32;;;9.80;99.90;;;;;;5068247;28;20033;-63
2023/10/11 04:14:44;;;;;;;29.63;8.85;;;9.70;99.90;;;;;;5068792;28;20033;-63
2023/10/11 04:20:17;;;;;;;22.38;8.15;;;9.60;99.90;;;;;;5069447;28;20317;-63
2023/10/11 04:23:01;;;;;;;26.08;8.10;;;9.50;99.90;;;;;;5069415;28;20039;-63
2023/10/11 04:25:26;;;;;;;23.60;8.23;;;9.40;99.90;;;;;;5069547;28;20033;-63
2023/10/11 04:27:56;;;;;;;21.98;8.05;;;9.30;99.90;;;;;;5051917;28;20078;-63
2023/10/11 04:30:41;;;;;;;21.27;7.57;;;9.40;99.90;;;;;;5049515;28;20036;-63
2023/10/11 04:33:13;;;;;;;19.50;7.75;;;9.40;99.90;;;;;;5048482;28;20037;-63
2023/10/11 04:35:42;;;;;;;22.40;8.25;;;9.30;99.90;;;;;;5049365;28;20025;-63
2023/10/11 04:38:10;;;;;;;23.90;8.35;;;9.30;99.90;;;;;;5032688;28;20418;-63
2023/10/11 04:40:41;;;;;;;21.52;8.45;;;9.30;99.90;;;;;;5069223;28;20032;-63
2023/10/11 04:43:08;;;;;;;;;;;9.30;99.90;;;;;;5050739;28;20060;-63
2023/10/11 04:45:44;;;;;;;19.77;7.85;;;9.30;99.90;;;;;;5049100;28;19908;-63
2023/10/11 04:48:29;;;;;;;31.10;8.48;;;9.30;99.90;;;;;;5048169;28;20558;-63
2023/10/11 04:51:04;;;;;;;25.30;9.18;;;9.30;99.90;;;;;;5054401;28;20029;-63
2023/10/11 04:53:34;;;;;;;22.80;8.32;;;9.20;99.90;;;;;;5069100;28;20043;-63
2023/10/11 04:56:01;;;;;;;22.75;8.43;;;9.30;99.90;;;;;;5068345;28;20032;-63
2023/10/11 04:58:41;;;;;;;24.60;8.52;;;9.30;99.90;;;;;;5068905;28;20338;-63
2023/10/11 05:01:08;;;;;;;23.48;7.30;;;9.30;99.90;;;;;;5068278;28;20058;-63
2023/10/11 05:03:37;;;;;;;26.35;8.77;;;9.30;99.90;;;;;;5065239;28;20036;-63
2023/10/11 05:06:27;;;;;;;24.42;8.18;;;9.20;99.90;;;;;;5067851;28;20094;-63
2023/10/11 05:09:04;;;;;;;24.70;8.02;;;9.30;99.90;;;;;;5068243;28;20048;-63
2023/10/11 05:11:36;;;;;;;28.40;8.18;;;9.30;99.90;;;;;;5069223;28;20039;-63
2023/10/11 05:16:49;;;;;;;20.45;7.40;;;9.30;99.90;;;;;;5048582;28;20513;-63
2023/10/11 05:19:20;;;;;;;22.13;8.55;;;9.20;99.90;;;;;;5046922;28;20834;-63
2023/10/11 05:21:52;;;;;;;22.77;8.23;;;9.10;99.90;;;;;;5047904;28;20082;-63
2023/10/11 05:52:35;;;;;;;18.75;8.07;;;9.30;99.90;;;;;;5048089;28;20516;-64
2023/10/11 05:55:06;;;;;;;22.35;8.80;;;9.40;99.90;;;;;;5047317;28;20025;-64
2023/10/11 05:57:31;;;;;;;22.05;8.88;;;9.30;99.90;;;;;;5058749;28;20035;-64
2023/10/11 06:00:02;;;;;;;22.55;8.20;;;9.30;99.90;;;;;;5067426;28;20041;-64
2023/10/11 06:02:28;;;;;;;;;;;9.30;99.90;;;;;;5068899;28;20110;-63
2023/10/11 06:04:55;;;;;;;22.98;8.32;;;9.30;99.90;;;;;;5068020;28;19930;-63
2023/10/11 06:07:21;;;;;;;20.55;8.63;;;9.40;99.90;;;;;;5067911;28;20032;-63
2023/10/11 06:09:52;;;;;;;27.08;8.40;;;9.40;99.90;;;;;;5057358;28;20045;-63
2023/10/11 06:12:29;;;;;;;20.20;8.38;;;9.50;99.90;;;;;;5047174;28;20037;-64
2023/10/11 06:14:56;;;;;;;23.98;8.35;;;9.60;99.90;;;;;;5047959;28;20021;-63
2023/10/11 06:17:48;;;;;;;22.30;8.50;;;9.60;99.90;;;;;;5047566;28;20032;-63
2023/10/11 06:20:26;;;;;;;22.63;8.60;;;9.60;99.90;;;;;;5051855;28;20117;-63
2023/10/11 06:22:53;;;;;;;22.27;8.57;;;9.60;99.90;;;;;;5067854;28;20025;-64
2023/10/11 06:25:23;;;;;;;21.33;8.68;;;9.50;99.90;;;;;;5067134;28;20047;-63
2023/10/11 06:30:24;;;;;;;27.70;8.80;;;9.50;99.90;;;;;;5046522;28;20094;-64
2023/10/11 06:32:50;;;;;;;28.70;9.52;;;9.40;99.90;;;;;;5067878;28;20119;-63
2023/10/11 06:35:23;;;;;;;21.50;8.55;;;9.50;99.90;;;;;;5067617;28;20021;-63
2023/10/11 06:37:55;;;;;;;20.88;9.20;;;9.60;99.90;;;;;;5071537;28;20056;-64
2023/10/11 06:40:38;;;;;;;23.13;7.93;;;9.70;99.90;;;;;;5069752;28;20120;-63
2023/10/11 06:43:08;;;;;;;21.35;7.72;;;9.80;99.90;;;;;;5061330;28;20100;-64
2023/10/11 06:45:35;;;;;;;24.95;7.88;;;9.80;99.90;;;;;;5051802;28;20445;-63
2023/10/11 06:48:07;;;;;;;19.30;7.72;;;9.80;99.90;;;;;;5050490;28;20045;-64
2023/10/11 06:50:37;;;;;;;21.48;7.60;;;9.90;99.90;;;;;;5051409;28;20126;-63
2023/10/11 06:53:07;;;;;;;17.63;7.18;;;10.00;99.90;;;;;;5068152;28;20033;-63
2023/10/11 06:55:34;;;;;;;21.37;7.13;;;10.00;99.90;;;;;;5071188;28;20503;-63
2023/10/11 06:58:05;;;;;;;17.23;6.88;;;10.10;99.90;;;;;;5070461;28;20748;-64
2023/10/11 07:00:37;;;;;;;24.27;8.07;;;10.20;99.90;;;;;;5071260;28;20043;-63
2023/10/11 07:03:07;;;;;;;20.08;6.93;;;10.30;99.90;;;;;;5053531;28;20094;-64
2023/10/11 07:05:40;;;;;;;21.50;7.53;;;10.40;99.90;;;;;;5051296;28;20033;-64
2023/10/11 07:08:09;;;;;;;19.08;7.70;;;10.50;99.90;;;;;;5050154;28;20040;-64
2023/10/11 07:10:40;;;;;;;18.98;7.88;;;10.70;99.90;;;;;;5054111;28;20051;-63
2023/10/11 07:13:06;;;;;;;;;;;10.80;99.90;;;;;;5050616;28;20223;-64
2023/10/11 07:15:46;;;;;;;18.17;7.32;;;11.00;99.90;;;;;;5049654;28;19908;-64
2023/10/11 07:18:22;;;;;;;19.43;8.00;;;11.10;99.90;;;;;;5050040;28;20747;-64
2023/10/11 07:20:47;;;;;;;17.60;7.18;;;11.20;99.90;;;;;;5057082;28;20036;-64
2023/10/11 07:23:19;;;;;;;26.00;8.25;;;11.30;99.90;;;;;;5070020;28;20480;-64
2023/10/11 07:25:59;;;;;;;23.67;7.57;;;11.40;99.90;;;;;;5070200;28;20444;-64
2023/10/11 07:28:38;;;;;;;21.67;7.68;;;11.50;99.90;;;;;;5070143;28;20032;-64
2023/10/11 07:31:13;;;;;;;19.27;8.20;;;11.60;99.90;;;;;;5061654;28;20033;-64
2023/10/11 07:33:39;;;;;;;21.05;8.25;;;11.70;99.90;;;;;;5050437;28;20033;-64
2023/10/11 07:36:11;;;;;;;22.35;8.30;;;11.80;99.90;;;;;;5049556;28;20037;-64
2023/10/11 07:38:43;;;;;;;22.80;8.32;;;11.90;99.90;;;;;;5050402;28;20466;-64
2023/10/11 07:41:17;;;;;;;24.60;9.48;;;12.00;99.90;;;;;;5068768;28;20033;-64
2023/10/11 07:43:45;;;;;;;28.65;9.60;;;12.20;99.90;;;;;;5068717;28;20082;-64
2023/10/11 07:46:11;;;;;;;28.88;10.27;;;12.30;99.90;;;;;;5055111;28;20060;-64
2023/10/11 07:48:39;;;;;;;24.00;9.93;;;12.50;99.90;;;;;;5070255;28;20032;-64
2023/10/11 07:51:11;;;;;;;25.30;9.90;;;12.60;99.90;;;;;;5069316;28;20124;-64
2023/10/11 07:53:45;;;;;;;31.70;9.35;;;12.80;99.90;;;;;;5069854;28;20548;-64
2023/10/11 07:56:15;;;;;;;25.38;9.13;;;13.00;99.90;;;;;;5058647;28;20486;-64
2023/10/11 07:58:45;;;;;;;23.48;8.93;;;13.30;99.90;;;;;;5049850;28;20516;-64
2023/10/11 08:01:16;;;;;;;24.77;9.23;;;13.60;99.90;;;;;;5052956;28;20119;-64
2023/10/11 08:03:44;;;;;;;23.65;8.65;;;13.90;99.90;;;;;;5065328;28;20162;-65
2023/10/11 08:06:13;;;;;;;20.92;8.35;;;14.10;99.90;;;;;;5062326;28;20809;-65
2023/10/11 08:08:40;;;;;;;22.40;8.00;;;14.30;99.90;;;;;;5049794;28;20037;-64
2023/10/11 08:11:18;;;;;;;19.23;7.75;;;14.40;99.90;;;;;;5049030;28;20060;-64
2023/10/11 08:13:48;;;;;;;24.42;9.18;;;14.60;99.90;;;;;;5049731;28;20033;-64
2023/10/11 08:16:18;;;;;;;30.98;8.77;;;14.80;99.90;;;;;;5053264;28;20081;-64
2023/10/11 08:18:48;;;;;;;22.70;9.30;;;15.00;99.90;;;;;;5069544;28;20131;-65
2023/10/11 08:21:18;;;;;;;32.97;9.63;;;15.20;99.90;;;;;;5068555;28;20437;-65
2023/10/11 08:23:44;;;;;;;23.02;8.50;;;15.40;99.90;;;;;;5069479;28;20028;-65
2023/10/11 08:26:14;;;;;;;26.85;8.75;;;15.60;99.90;;;;;;5068502;28;20077;-65
2023/10/11 08:28:49;;;;;;;27.50;8.85;;;15.70;99.90;;;;;;5065559;28;20384;-65
2023/10/11 08:31:35;;;;;;;23.85;8.40;;;15.90;99.90;;;;;;5048466;28;20144;-65
2023/10/11 08:34:01;;;;;;;23.15;9.13;;;16.00;99.90;;;;;;5051959;28;20103;-65
2023/10/11 08:36:30;;;;;;;25.63;9.00;;;16.20;99.90;;;;;;5052792;28;20086;-65
2023/10/11 08:38:56;;;;;;;32.38;9.23;;;16.30;99.90;;;;;;5065854;28;20489;-65
2023/10/11 08:41:22;;;;;;;23.02;9.15;;;16.50;99.90;;;;;;5048144;28;20548;-65
2023/10/11 08:43:49;;;;;;;33.80;9.27;;;16.70;99.90;;;;;;5049326;28;20033;-65
2023/10/11 08:46:18;;;;;;;23.88;8.55;;;16.90;99.90;;;;;;5047914;28;20090;-65
2023/10/11 08:48:49;;;;;;;25.25;8.70;;;17.10;99.90;;;;;;5029068;28;20033;-65
2023/10/11 08:51:21;;;;;;;25.90;8.65;;;17.30;99.90;;;;;;5055524;28;20032;-65
2023/10/11 08:53:48;;;;;;;28.77;8.68;;;17.60;99.90;;;;;;5051680;28;20530;-65
2023/10/11 08:56:17;;;;;;;26.02;9.07;;;17.80;99.90;;;;;;5063124;28;20047;-65
2023/10/11 08:58:53;;;;;;;31.08;9.07;;;18.00;99.90;;;;;;5049444;28;20067;-65
2023/10/11 09:01:20;;;;;;;22.98;8.30;;;18.30;99.90;;;;;;5048103;28;20107;-65
2023/10/11 09:04:15;;;;;;;20.98;8.65;;;18.50;99.90;;;;;;5048804;28;20379;-65
2023/10/11 09:06:45;;;;;;;21.75;7.80;;;18.80;99.90;;;;;;5048598;28;20080;-65
2023/10/11 09:09:36;;;;;;;29.77;8.75;;;19.00;99.90;;;;;;5061422;28;20033;-66
2023/10/11 09:12:22;;;;;;;22.13;7.80;;;19.20;99.90;;;;;;5068699;28;20040;-65
2023/10/11 09:15:03;;;;;;;25.80;7.80;;;19.40;99.90;;;;;;5064263;28;20164;-66
2023/10/11 09:17:38;;;;;;;31.23;8.93;;;19.60;99.90;;;;;;5045964;28;20147;-66
2023/10/11 09:20:23;;;;;;;23.05;7.05;;;19.90;99.90;;;;;;5068440;28;20028;-66
2023/10/11 09:22:52;;;;;;;31.38;7.15;;;20.10;99.90;;;;;;5060572;28;20036;-66
2023/10/11 09:25:22;;;;;;;26.65;6.15;;;20.30;99.90;;;;;;5047600;28;20457;-66
2023/10/11 09:27:49;;;;;;;17.45;7.15;;;20.50;99.90;;;;;;5052310;28;20721;-66
2023/10/11 09:30:19;;;;;;;22.70;6.10;;;20.70;99.90;;;;;;5067497;28;20041;-66
2023/10/11 09:32:49;;;;;;;18.67;6.05;;;20.90;99.90;;;;;;5068169;28;20388;-65
2023/10/11 09:35:23;;;;;;;20.77;6.57;;;21.20;99.90;;;;;;5067516;28;20035;-65
2023/10/11 09:37:50;;;;;;;19.23;6.00;;;21.40;99.90;;;;;;5065235;28;20561;-65
2023/10/11 09:40:18;;;;;;;21.33;5.82;;;21.60;99.90;;;;;;5047186;28;20037;-66
2023/10/11 09:42:45;;;;;;;24.33;5.15;;;21.70;99.90;;;;;;5048238;28;20124;-65
2023/10/11 09:45:16;;;;;;;19.40;5.55;;;21.80;99.90;;;;;;5048114;28;20043;-65
2023/10/11 09:47:44;;;;;;;20.15;5.57;;;21.80;99.90;;;;;;5048083;28;20083;-65
2023/10/11 09:50:15;;;;;;;26.38;5.40;;;21.90;99.90;;;;;;5047525;28;20033;-66
2023/10/11 09:52:47;;;;;;;16.92;5.68;;;21.90;99.90;;;;;;5048176;28;20036;-65
2023/10/11 09:55:17;;;;;;;24.15;6.15;;;22.00;98.60;;;;;;5053533;28;20062;-65
2023/10/11 09:57:54;;;;;;;19.27;5.75;;;22.10;99.50;;;;;;5068198;28;20064;-66
2023/10/11 10:00:43;;;;;;;18.02;5.25;;;22.20;99.90;;;;;;5065722;28;20040;-65
2023/10/11 10:03:13;;;;;;;18.30;5.32;;;22.40;99.50;;;;;;5067540;28;20032;-66
2023/10/11 10:06:08;;;;;;;20.23;5.28;;;22.60;99.60;;;;;;5068079;28;20115;-65
2023/10/11 10:08:34;;;;;;;20.33;4.97;;;22.80;98.20;;;;;;5066092;28;20056;-66
2023/10/11 10:11:02;;;;;;;17.13;4.55;;;22.80;94.30;;;;;;5056191;28;20071;-66
2023/10/11 10:13:28;;;;;;;25.23;4.88;;;22.80;96.20;;;;;;5051208;28;20073;-65
2023/10/11 10:15:57;;;;;;;21.23;5.05;;;22.90;93.90;;;;;;5051794;28;20449;-66
2023/10/11 10:18:24;;;;;;;20.13;4.75;;;23.00;93.30;;;;;;5052999;28;20033;-65
2023/10/11 10:21:04;;;;;;;26.30;5.65;;;22.80;93.40;;;;;;5068977;28;20669;-65
2023/10/11 10:23:32;;;;;;;20.95;4.20;;;22.90;94.90;;;;;;5071027;28;20163;-65
2023/10/11 10:26:04;;;;;;;15.45;4.35;;;22.90;93.40;;;;;;5071713;28;20040;-65
2023/10/11 10:28:36;;;;;;;22.98;5.35;;;23.00;91.40;;;;;;5070666;28;20107;-65
2023/10/11 10:31:12;;;;;;;22.35;4.65;;;23.00;91.50;;;;;;5031793;28;20029;-65
2023/10/11 10:33:42;;;;;;;20.65;5.13;;;23.10;90.60;;;;;;5058813;28;20036;-65
2023/10/11 10:36:28;;;;;;;33.05;4.90;;;23.10;91.20;;;;;;5071398;28;20097;-65
2023/10/11 10:39:00;;;;;;;27.98;4.68;;;23.20;88.70;;;;;;5063289;28;20087;-65
2023/10/11 10:41:33;;;;;;;29.15;5.40;;;23.20;88.20;;;;;;5063437;28;20135;-65
2023/10/11 10:44:08;;;;;;;15.30;4.53;;;23.30;90.70;;;;;;5071569;28;20032;-64
2023/10/11 10:46:53;;;;;;;17.85;4.25;;;23.40;90.10;;;;;;5052698;28;20033;-65
2023/10/11 10:49:40;;;;;;;22.38;4.78;;;23.50;90.50;;;;;;5040430;28;20044;-65
2023/10/11 10:52:40;;;;;;;17.73;4.28;;;23.60;89.90;;;;;;5051387;28;20477;-65
2023/10/11 10:55:07;;;;;;;13.93;4.68;;;23.70;85.30;;;;;;5028120;28;20112;-65
2023/10/11 10:57:37;;;;;;;22.42;5.05;;;23.80;87.40;;;;;;5050349;28;20025;-65
2023/10/11 11:00:21;;;;;;;16.63;4.50;;;23.80;86.40;;;;;;5059345;28;20085;-65
2023/10/11 11:02:46;;;;;;;23.88;4.43;;;23.90;85.10;;;;;;5056930;28;20752;-65
2023/10/11 11:05:15;;;;;;;19.10;4.45;;;24.10;85.20;;;;;;5050939;28;20032;-65
2023/10/11 11:07:47;;;;;;;23.00;5.30;;;24.00;83.40;;;;;;5050632;28;20389;-66
2023/10/11 11:10:20;;;;;;;28.05;4.20;;;24.00;86.40;;;;;;5047506;28;20026;-66
2023/10/11 11:12:49;;;;;;;25.85;4.85;;;24.20;86.00;;;;;;5063291;28;20028;-66
2023/10/11 11:15:22;;;;;;;23.40;5.25;;;24.30;85.50;;;;;;5063143;28;20025;-66
2023/10/11 11:17:50;;;;;;;28.13;4.75;;;24.30;87.00;;;;;;5050706;28;20080;-66
2023/10/11 11:22:52;;;;;;;14.18;5.45;;;24.40;87.60;;;;;;5050506;28;20091;-65
2023/10/11 11:28:15;;;;;;;14.85;4.90;;;24.50;85.70;;;;;;5070658;28;20477;-65
2023/10/11 11:30:44;;;;;;;15.30;5.20;;;24.50;86.20;;;;;;5070427;28;20027;-66
2023/10/11 11:33:36;;;;;;;18.52;4.78;;;24.50;87.60;;;;;;5070677;28;20036;-65
2023/10/11 11:36:11;;;;;;;15.60;4.90;;;24.70;88.30;;;;;;5050874;28;20625;-65
2023/10/11 11:38:45;;;;;;;20.10;4.88;;;24.80;87.00;;;;;;5064693;28;20867;-65
2023/10/11 11:41:16;;;;;;;24.08;6.22;;;24.80;85.90;;;;;;5050478;28;20060;-66
2023/10/11 11:43:42;;;;;;;16.50;5.05;;;25.00;86.20;;;;;;5050456;28;20020;-65
2023/10/11 11:46:09;;;;;;;17.92;5.22;;;24.80;85.70;;;;;;5050260;28;20071;-65
2023/10/11 11:48:41;;;;;;;22.42;4.85;;;24.60;83.90;;;;;;5049420;28;20031;-65
2023/10/11 11:51:15;;;;;;;25.58;5.22;;;24.70;85.00;;;;;;5030401;28;20044;-65
2023/10/11 11:53:43;;;;;;;14.00;4.72;;;24.80;87.30;;;;;;5060186;28;20025;-65
2023/10/11 11:56:11;;;;;;;17.55;4.82;;;24.90;86.10;;;;;;5069928;28;20039;-66
2023/10/11 11:58:38;;;;;;;19.90;5.30;;;24.90;86.60;;;;;;5069313;28;20465;-65
2023/10/11 12:01:15;;;;;;;21.95;5.40;;;25.00;85.50;;;;;;5066069;28;20100;-66
2023/10/11 12:03:42;;;;;;;24.17;4.70;;;25.10;85.60;;;;;;5037149;28;20032;-66
2023/10/11 12:06:24;;;;;;;14.95;4.60;;;25.20;82.80;;;;;;5058008;28;20028;-66
2023/10/11 12:09:00;;;;;;;22.80;4.80;;;25.20;84.00;;;;;;5069792;28;20436;-66
2023/10/11 12:11:30;;;;;;;15.00;5.10;;;25.40;82.10;;;;;;5069156;28;20070;-66
2023/10/11 12:13:57;;;;;;;24.00;5.38;;;25.60;80.20;;;;;;5069900;28;20040;-66
2023/10/11 12:16:24;;;;;;;24.02;5.13;;;25.70;80.60;;;;;;5061247;28;20044;-66
2023/10/11 12:18:51;;;;;;;19.98;5.07;;;25.80;85.60;;;;;;5063798;28;20033;-66
2023/10/11 12:21:16;;;;;;;28.70;5.53;;;25.80;83.00;;;;;;5049365;28;20025;-66
2023/10/11 12:23:48;;;;;;;15.80;4.78;;;25.80;82.10;;;;;;5047974;28;20037;-66
2023/10/11 12:26:17;;;;;;;21.33;4.57;;;25.80;85.20;;;;;;5049663;28;20029;-66
2023/10/11 12:28:46;;;;;;;18.75;5.32;;;26.00;81.70;;;;;;5049843;28;20043;-66
2023/10/11 12:31:11;;;;;;;17.85;4.65;;;26.20;83.80;;;;;;5049081;28;20055;-65
2023/10/11 12:33:38;;;;;;;19.08;5.28;;;26.10;80.90;;;;;;5048008;28;20282;-66
2023/10/11 12:36:06;;;;;;;18.38;4.85;;;26.10;81.20;;;;;;5048420;28;20032;-66
2023/10/11 12:38:39;;;;;;;25.17;5.30;;;26.20;80.60;;;;;;5028392;28;20065;-66
2023/10/11 12:41:07;;;;;;;19.27;4.72;;;26.20;78.50;;;;;;5052640;28;20032;-66
2023/10/11 12:43:33;;;;;;;15.88;5.05;;;26.30;82.90;;;;;;5068558;28;20024;-65
2023/10/11 12:46:00;;;;;;;19.08;5.28;;;26.40;81.40;;;;;;5056044;28;20469;-66
2023/10/11 12:48:25;;;;;;;26.00;5.82;;;26.30;80.10;;;;;;5062898;28;20442;-66
2023/10/11 12:50:51;;;;;;;31.10;5.55;;;26.50;79.70;;;;;;5068953;28;20023;-66
2023/10/11 12:53:17;;;;;;;14.90;4.88;;;26.30;74.60;;;;;;5068901;28;20032;-66
2023/10/11 12:55:45;;;;;;;19.58;5.53;;;26.30;78.50;;;;;;5067982;28;20174;-66
2023/10/11 12:58:14;;;;;;;17.67;5.63;;;26.30;81.70;;;;;;5057006;28;20033;-66
2023/10/11 13:01:05;;;;;;;19.85;5.10;;;26.20;78.90;;;;;;5048124;28;20048;-65
2023/10/11 13:03:37;;;;;;;18.90;4.70;;;26.20;77.40;;;;;;5044865;28;20436;-66
2023/10/11 13:06:10;;;;;;;16.17;5.32;;;26.00;77.80;;;;;;5048662;28;20393;-65
2023/10/11 13:08:37;;;;;;;15.68;4.85;;;25.90;78.50;;;;;;5047947;28;20079;-65
2023/10/11 13:11:05;;;;;;;19.17;5.53;;;25.80;79.60;;;;;;5063457;28;20043;-65
2023/10/11 13:13:32;;;;;;;17.73;5.38;;;25.80;77.90;;;;;;5046075;28;20413;-64
2023/10/11 13:16:01;;;;;;;17.88;4.95;;;25.70;78.60;;;;;;5044378;28;20553;-65
2023/10/11 13:18:40;;;;;;;22.02;5.03;;;25.70;79.30;;;;;;5043831;28;20512;-65
2023/10/11 13:21:16;;;;;;;22.60;5.53;;;25.80;78.40;;;;;;5051985;28;20033;-65
2023/10/11 13:23:43;;;;;;;16.67;4.88;;;25.80;80.10;;;;;;5045390;28;20378;-65
2023/10/11 13:26:09;;;;;;;24.58;5.78;;;26.20;80.70;;;;;;5047372;28;20104;-65
2023/10/11 13:28:36;;;;;;;16.00;5.18;;;26.30;79.30;;;;;;5048392;28;20134;-65
2023/10/11 13:31:02;;;;;;;17.65;5.20;;;26.30;77.40;;;;;;5053013;28;20060;-64
2023/10/11 13:33:32;;;;;;;22.10;5.45;;;25.90;77.10;;;;;;5047916;28;20041;-65
2023/10/11 13:36:02;;;;;;;17.67;5.35;;;25.70;78.50;;;;;;5055732;28;20663;-65
2023/10/11 13:38:31;;;;;;;17.67;5.25;;;25.60;77.90;;;;;;5046775;28;20068;-64
2023/10/11 13:41:01;;;;;;;17.15;5.10;;;25.60;82.20;;;;;;5047596;28;20533;-65
2023/10/11 13:43:26;;;;;;;20.77;5.43;;;25.80;81.90;;;;;;5046221;28;20478;-64
2023/10/11 13:46:06;;;;;;;25.73;5.70;;;25.90;75.90;;;;;;5046782;28;20032;-65
2023/10/11 13:48:40;;;;;;;22.60;4.80;;;25.90;80.00;;;;;;5047281;28;21948;-65
2023/10/11 13:51:07;;;;;;;15.32;5.20;;;26.00;78.90;;;;;;5048313;28;20500;-65